Flugplatz Wittmundhafen Airport

Bericht für ETNT

vom 28.10. um 08:20 UTC

Wind 7 kt aus 200°

Sichtweite 10 km oder mehr

gering bewölkt in 2500 ft

aufgelockert bewölkt in 6000 ft

aufgebrochene Bewölkung in 10000 ft

Temperatur 10.0°C

Taupunkt 8.0°C

Luftfeuchtigkeit 87%

Luftdruck 1003 hPa

ETNT 280820Z 20007KT 9999 FEW025 SCT060 BKN100 10/08 Q1003 BLU BLU TEMPO GRN

Prognose für ETNT

vom 28.10. um 08:00 UTC

Zwischen 09:00 UTC und 18:00 UTC

Wind 10 kt aus 220°

Sichtweite 10 km oder mehr

keine signifikanten Wettererscheinungen

aufgelockert bewölkt in 2000 ft

aufgebrochene Bewölkung in 6000 ft


Zwischen 09:00 UTC und 18:00 UTC zeitweise

Wind 12 kt aus 230°

Sichtweite 4000 m

Regenschauer

aufgebrochene Bewölkung in 2000 ft


Zwischen 11:00 UTC und 15:00 UTC mit einer Wahrscheinlichkeit von 30%

Wind 15 kt aus 240° in Böen 25 kt

Sichtweite 3000 m

Code: TSRA

aufgebrochene Bewölkung in 800 ft

aufgebrochene Bewölkung in 2000 ft

TAF ETNT 280800Z 2809/2818 22010KT 9999 NSW SCT020 BKN060 TEMPO 2809/2818 23012KT 4000 SHRA BKN020CB PROB30 2811/2815 24015G25KT 3000 TSRA BKN008 BKN020CB BY ETGL
Impressum